sensor_id;sensor_type;location;lat;lon;timestamp;pressure;altitude;pressure_sealevel;temperature;humidity
45327;BME280;31062;49.678;24.560;2023-04-27T00:00:29;97887.22;;;4.72;59.20
45327;BME280;31062;49.678;24.560;2023-04-27T00:03:15;98080.53;;;5.99;59.06
45327;BME280;31062;49.678;24.560;2023-04-27T00:06:01;97878.97;;;4.64;58.76
45327;BME280;31062;49.678;24.560;2023-04-27T00:08:46;98072.44;;;6.09;59.08
45327;BME280;31062;49.678;24.560;2023-04-27T00:11:32;98070.97;;;6.08;59.13
45327;BME280;31062;49.678;24.560;2023-04-27T00:14:17;98080.88;;;5.96;59.54
45327;BME280;31062;49.678;24.560;2023-04-27T00:17:02;97895.84;;;4.83;58.45
45327;BME280;31062;49.678;24.560;2023-04-27T00:19:48;98032.03;;;5.81;58.88
45327;BME280;31062;49.678;24.560;2023-04-27T00:22:33;98020.28;;;5.73;59.06
45327;BME280;31062;49.678;24.560;2023-04-27T00:25:19;97896.59;;;4.84;58.52
45327;BME280;31062;49.678;24.560;2023-04-27T00:28:04;97899.69;;;4.80;58.96
45327;BME280;31062;49.678;24.560;2023-04-27T00:30:50;97861.34;;;4.60;59.17
45327;BME280;31062;49.678;24.560;2023-04-27T00:33:38;98031.13;;;5.71;59.14
45327;BME280;31062;49.678;24.560;2023-04-27T00:36:23;97882.44;;;4.65;59.08
45327;BME280;31062;49.678;24.560;2023-04-27T00:39:09;98057.00;;;5.83;59.52
45327;BME280;31062;49.678;24.560;2023-04-27T00:41:55;97952.66;;;4.88;59.96
45327;BME280;31062;49.678;24.560;2023-04-27T00:44:40;98055.13;;;5.78;59.99
45327;BME280;31062;49.678;24.560;2023-04-27T00:47:27;98016.59;;;5.48;60.10
45327;BME280;31062;49.678;24.560;2023-04-27T00:50:13;97888.44;;;4.56;59.51
45327;BME280;31062;49.678;24.560;2023-04-27T00:53:00;97905.91;;;4.73;60.05
45327;BME280;31062;49.678;24.560;2023-04-27T00:55:46;97969.22;;;5.11;59.89
45327;BME280;31062;49.678;24.560;2023-04-27T00:58:31;98023.94;;;5.53;60.09
45327;BME280;31062;49.678;24.560;2023-04-27T01:01:17;98074.19;;;5.68;60.53
45327;BME280;31062;49.678;24.560;2023-04-27T01:04:04;98014.34;;;5.39;60.71
45327;BME280;31062;49.678;24.560;2023-04-27T01:06:51;97971.38;;;5.05;60.78
45327;BME280;31062;49.678;24.560;2023-04-27T01:09:36;98085.94;;;5.69;60.70
45327;BME280;31062;49.678;24.560;2023-04-27T01:12:21;97875.16;;;4.31;61.09
45327;BME280;31062;49.678;24.560;2023-04-27T01:15:08;98068.66;;;5.61;61.01
45327;BME280;31062;49.678;24.560;2023-04-27T01:18:00;98070.53;;;5.66;60.92
45327;BME280;31062;49.678;24.560;2023-04-27T01:20:46;98060.97;;;5.59;61.33
45327;BME280;31062;49.678;24.560;2023-04-27T01:23:32;97892.09;;;4.50;61.25
45327;BME280;31062;49.678;24.560;2023-04-27T01:26:17;97977.41;;;5.04;60.98
45327;BME280;31062;49.678;24.560;2023-04-27T01:29:03;98076.75;;;5.59;61.33
45327;BME280;31062;49.678;24.560;2023-04-27T01:31:48;97996.28;;;5.07;61.07
45327;BME280;31062;49.678;24.560;2023-04-27T01:34:34;97976.06;;;4.82;61.29
45327;BME280;31062;49.678;24.560;2023-04-27T01:37:19;97882.06;;;4.25;61.52
45327;BME280;31062;49.678;24.560;2023-04-27T01:40:05;98064.59;;;5.47;61.33
45327;BME280;31062;49.678;24.560;2023-04-27T01:42:50;97484.75;;;1.47;60.99
45327;BME280;31062;49.678;24.560;2023-04-27T01:45:35;98066.97;;;5.50;61.24
45327;BME280;31062;49.678;24.560;2023-04-27T01:48:21;98038.16;;;5.28;61.33
45327;BME280;31062;49.678;24.560;2023-04-27T01:51:07;97893.47;;;4.29;61.79
45327;BME280;31062;49.678;24.560;2023-04-27T01:53:53;98054.31;;;5.40;60.74
45327;BME280;31062;49.678;24.560;2023-04-27T01:56:38;97885.19;;;4.21;60.96
45327;BME280;31062;49.678;24.560;2023-04-27T01:59:23;97877.25;;;4.10;60.77
45327;BME280;31062;49.678;24.560;2023-04-27T02:02:09;97868.25;;;4.02;61.14
45327;BME280;31062;49.678;24.560;2023-04-27T02:04:54;97873.53;;;4.00;61.54
45327;BME280;31062;49.678;24.560;2023-04-27T02:07:40;98081.72;;;5.24;61.98
45327;BME280;31062;49.678;24.560;2023-04-27T02:10:25;98056.81;;;5.22;62.26
45327;BME280;31062;49.678;24.560;2023-04-27T02:13:14;98048.00;;;5.16;62.00
45327;BME280;31062;49.678;24.560;2023-04-27T02:16:00;98022.94;;;4.84;61.91
45327;BME280;31062;49.678;24.560;2023-04-27T02:18:48;98034.94;;;5.09;62.11
45327;BME280;31062;49.678;24.560;2023-04-27T02:21:33;98019.38;;;5.04;62.10
45327;BME280;31062;49.678;24.560;2023-04-27T02:24:19;97960.41;;;4.62;61.88
45327;BME280;31062;49.678;24.560;2023-04-27T02:27:04;98041.22;;;5.17;61.98
45327;BME280;31062;49.678;24.560;2023-04-27T02:29:50;97969.72;;;4.59;62.15
45327;BME280;31062;49.678;24.560;2023-04-27T02:32:36;98069.50;;;5.33;61.69
45327;BME280;31062;49.678;24.560;2023-04-27T02:35:22;97889.13;;;4.05;61.84
45327;BME280;31062;49.678;24.560;2023-04-27T02:38:08;97907.13;;;4.21;62.26
45327;BME280;31062;49.678;24.560;2023-04-27T02:40:56;98049.06;;;5.13;62.77
45327;BME280;31062;49.678;24.560;2023-04-27T02:43:41;97877.34;;;3.97;62.47
45327;BME280;31062;49.678;24.560;2023-04-27T02:46:26;98079.22;;;5.34;62.68
45327;BME280;31062;49.678;24.560;2023-04-27T02:49:12;97941.41;;;4.35;62.86
45327;BME280;31062;49.678;24.560;2023-04-27T02:51:57;97903.94;;;4.09;63.10
45327;BME280;31062;49.678;24.560;2023-04-27T02:54:43;98031.75;;;4.90;63.00
45327;BME280;31062;49.678;24.560;2023-04-27T02:57:28;98036.53;;;4.97;62.85
45327;BME280;31062;49.678;24.560;2023-04-27T03:00:14;97899.50;;;3.99;62.94
45327;BME280;31062;49.678;24.560;2023-04-27T03:02:59;98097.47;;;5.16;63.14
45327;BME280;31062;49.678;24.560;2023-04-27T03:05:45;98098.63;;;5.28;63.02
45327;BME280;31062;49.678;24.560;2023-04-27T03:08:31;98100.09;;;5.29;62.88
45327;BME280;31062;49.678;24.560;2023-04-27T03:11:16;98082.09;;;5.21;62.83
45327;BME280;31062;49.678;24.560;2023-04-27T03:14:02;98100.09;;;5.29;62.75
45327;BME280;31062;49.678;24.560;2023-04-27T03:16:48;98057.44;;;5.00;62.67
45327;BME280;31062;49.678;24.560;2023-04-27T03:19:33;98127.56;;;5.29;62.80
45327;BME280;31062;49.678;24.560;2023-04-27T03:22:19;98095.28;;;5.22;63.02
45327;BME280;31062;49.678;24.560;2023-04-27T03:25:04;98112.53;;;5.30;62.48
45327;BME280;31062;49.678;24.560;2023-04-27T03:27:50;98140.22;;;5.32;62.51
45327;BME280;31062;49.678;24.560;2023-04-27T03:30:38;98112.41;;;5.00;62.92
45327;BME280;31062;49.678;24.560;2023-04-27T03:33:24;98120.19;;;5.24;62.73
45327;BME280;31062;49.678;24.560;2023-04-27T03:36:12;98053.94;;;4.64;62.50
45327;BME280;31062;49.678;24.560;2023-04-27T03:38:59;98120.41;;;5.26;62.38
45327;BME280;31062;49.678;24.560;2023-04-27T03:41:45;98069.44;;;4.82;62.79
45327;BME280;31062;49.678;24.560;2023-04-27T03:44:30;98100.03;;;4.86;62.86
45327;BME280;31062;49.678;24.560;2023-04-27T03:47:17;98112.78;;;5.04;63.20
45327;BME280;31062;49.678;24.560;2023-04-27T03:50:04;97962.09;;;4.08;62.90
45327;BME280;31062;49.678;24.560;2023-04-27T03:52:49;98002.06;;;4.24;62.88
45327;BME280;31062;49.678;24.560;2023-04-27T03:55:42;98013.09;;;4.32;63.19
45327;BME280;31062;49.678;24.560;2023-04-27T03:58:29;98155.06;;;5.29;63.09
45327;BME280;31062;49.678;24.560;2023-04-27T04:01:30;98005.69;;;4.19;62.93
45327;BME280;31062;49.678;24.560;2023-04-27T04:04:16;97992.66;;;4.12;62.75
45327;BME280;31062;49.678;24.560;2023-04-27T04:07:02;98161.63;;;5.26;62.85
45327;BME280;31062;49.678;24.560;2023-04-27T04:09:47;97977.75;;;4.00;63.43
45327;BME280;31062;49.678;24.560;2023-04-27T04:12:32;98144.31;;;5.11;63.24
45327;BME280;31062;49.678;24.560;2023-04-27T04:15:18;97976.56;;;3.88;63.80
45327;BME280;31062;49.678;24.560;2023-04-27T04:18:06;98131.03;;;4.94;63.59
45327;BME280;31062;49.678;24.560;2023-04-27T04:20:52;98123.66;;;4.89;63.37
45327;BME280;31062;49.678;24.560;2023-04-27T04:23:38;97992.03;;;3.98;64.00
45327;BME280;31062;49.678;24.560;2023-04-27T04:26:25;98177.06;;;5.29;64.20
45327;BME280;31062;49.678;24.560;2023-04-27T04:29:11;98131.81;;;5.02;64.50
45327;BME280;31062;49.678;24.560;2023-04-27T04:31:57;98167.13;;;5.26;64.31
45327;BME280;31062;49.678;24.560;2023-04-27T04:34:46;98114.66;;;4.81;64.42
45327;BME280;31062;49.678;24.560;2023-04-27T04:37:33;98184.75;;;5.31;64.92
45327;BME280;31062;49.678;24.560;2023-04-27T04:40:22;97995.88;;;4.03;64.89
45327;BME280;31062;49.678;24.560;2023-04-27T04:43:07;98160.06;;;5.10;65.31
45327;BME280;31062;49.678;24.560;2023-04-27T04:45:53;98187.34;;;5.37;65.10
45327;BME280;31062;49.678;24.560;2023-04-27T04:48:38;98220.72;;;5.41;65.10
45327;BME280;31062;49.678;24.560;2023-04-27T04:51:23;98043.16;;;4.37;64.76
45327;BME280;31062;49.678;24.560;2023-04-27T04:54:09;98005.63;;;4.11;64.50
45327;BME280;31062;49.678;24.560;2023-04-27T04:56:55;97974.03;;;3.90;64.86
45327;BME280;31062;49.678;24.560;2023-04-27T04:59:42;98003.84;;;4.14;65.15
45327;BME280;31062;49.678;24.560;2023-04-27T05:02:28;98048.34;;;4.48;65.12
45327;BME280;31062;49.678;24.560;2023-04-27T05:05:14;98117.91;;;5.00;64.93
45327;BME280;31062;49.678;24.560;2023-04-27T05:08:00;98106.56;;;4.75;65.30
45327;BME280;31062;49.678;24.560;2023-04-27T05:10:49;98013.84;;;4.32;65.13
45327;BME280;31062;49.678;24.560;2023-04-27T05:13:36;98203.06;;;5.64;65.42
45327;BME280;31062;49.678;24.560;2023-04-27T05:16:24;98046.94;;;4.55;65.64
45327;BME280;31062;49.678;24.560;2023-04-27T05:19:10;98064.22;;;4.71;65.16
45327;BME280;31062;49.678;24.560;2023-04-27T05:21:57;98033.56;;;4.51;65.08
45327;BME280;31062;49.678;24.560;2023-04-27T05:24:42;98213.56;;;5.73;65.79
45327;BME280;31062;49.678;24.560;2023-04-27T05:27:29;98222.78;;;5.84;64.87
45327;BME280;31062;49.678;24.560;2023-04-27T05:30:15;98207.53;;;5.75;64.69
45327;BME280;31062;49.678;24.560;2023-04-27T05:33:02;98218.44;;;5.88;64.95
45327;BME280;31062;49.678;24.560;2023-04-27T05:35:50;98216.97;;;5.87;65.26
45327;BME280;31062;49.678;24.560;2023-04-27T05:38:35;98028.81;;;4.60;63.81
45327;BME280;31062;49.678;24.560;2023-04-27T05:41:24;98223.19;;;5.88;63.61
45327;BME280;31062;49.678;24.560;2023-04-27T05:44:09;98231.66;;;5.90;63.65
45327;BME280;31062;49.678;24.560;2023-04-27T05:46:55;98190.66;;;5.43;64.18
45327;BME280;31062;49.678;24.560;2023-04-27T05:49:41;98241.56;;;5.93;64.85
45327;BME280;31062;49.678;24.560;2023-04-27T05:52:26;98218.19;;;5.86;64.26
45327;BME280;31062;49.678;24.560;2023-04-27T05:55:15;98068.28;;;4.77;63.93
45327;BME280;31062;49.678;24.560;2023-04-27T05:58:00;98200.31;;;5.64;64.04
45327;BME280;31062;49.678;24.560;2023-04-27T06:00:53;98243.81;;;6.09;64.58
45327;BME280;31062;49.678;24.560;2023-04-27T06:03:39;98070.88;;;4.83;63.80
45327;BME280;31062;49.678;24.560;2023-04-27T06:06:24;98065.22;;;4.81;64.26
45327;BME280;31062;49.678;24.560;2023-04-27T06:09:10;98235.69;;;5.96;64.07
45327;BME280;31062;49.678;24.560;2023-04-27T06:11:56;98268.41;;;6.07;63.90
45327;BME280;31062;49.678;24.560;2023-04-27T06:14:44;98231.22;;;5.86;64.74
45327;BME280;31062;49.678;24.560;2023-04-27T06:17:30;98096.91;;;4.82;64.55
45327;BME280;31062;49.678;24.560;2023-04-27T06:20:15;98294.38;;;5.91;64.30
45327;BME280;31062;49.678;24.560;2023-04-27T06:23:01;98082.47;;;4.61;64.74
45327;BME280;31062;49.678;24.560;2023-04-27T06:25:46;98260.97;;;5.87;65.23
45327;BME280;31062;49.678;24.560;2023-04-27T06:28:32;98090.53;;;4.59;65.01
45327;BME280;31062;49.678;24.560;2023-04-27T06:31:18;98118.47;;;4.78;65.35
45327;BME280;31062;49.678;24.560;2023-04-27T06:34:03;98193.53;;;5.29;64.78
45327;BME280;31062;49.678;24.560;2023-04-27T06:36:48;98101.75;;;4.68;65.81
45327;BME280;31062;49.678;24.560;2023-04-27T06:39:34;98147.84;;;4.90;66.14
45327;BME280;31062;49.678;24.560;2023-04-27T06:42:21;98285.22;;;5.96;65.88
45327;BME280;31062;49.678;24.560;2023-04-27T06:45:07;98295.69;;;5.98;65.61
45327;BME280;31062;49.678;24.560;2023-04-27T06:47:52;98234.06;;;5.65;65.44
45327;BME280;31062;49.678;24.560;2023-04-27T06:50:38;98125.44;;;4.79;65.61
45327;BME280;31062;49.678;24.560;2023-04-27T06:53:24;98218.25;;;5.58;65.43
45327;BME280;31062;49.678;24.560;2023-04-27T06:56:10;98110.34;;;4.93;65.08
45327;BME280;31062;49.678;24.560;2023-04-27T06:58:56;98119.34;;;5.01;66.14
45327;BME280;31062;49.678;24.560;2023-04-27T07:01:41;98305.19;;;6.33;65.73
45327;BME280;31062;49.678;24.560;2023-04-27T07:04:27;98287.41;;;6.34;65.78
45327;BME280;31062;49.678;24.560;2023-04-27T07:07:12;98283.53;;;6.29;65.48
45327;BME280;31062;49.678;24.560;2023-04-27T07:09:58;98296.84;;;6.61;65.92
45327;BME280;31062;49.678;24.560;2023-04-27T07:12:43;98335.31;;;6.89;66.46
45327;BME280;31062;49.678;24.560;2023-04-27T07:15:32;98291.03;;;7.18;64.59
45327;BME280;31062;49.678;24.560;2023-04-27T07:18:17;98331.84;;;7.57;64.67
45327;BME280;31062;49.678;24.560;2023-04-27T07:21:03;98290.25;;;7.63;61.80
45327;BME280;31062;49.678;24.560;2023-04-27T07:23:48;98160.72;;;7.10;61.88
45327;BME280;31062;49.678;24.560;2023-04-27T07:26:33;98148.41;;;7.11;56.72
45327;BME280;31062;49.678;24.560;2023-04-27T07:29:20;98288.28;;;8.11;55.76
45327;BME280;31062;49.678;24.560;2023-04-27T07:32:11;98296.72;;;8.28;58.07
45327;BME280;31062;49.678;24.560;2023-04-27T07:34:57;98267.63;;;8.27;58.28
45327;BME280;31062;49.678;24.560;2023-04-27T07:37:42;98121.81;;;7.53;53.63
45327;BME280;31062;49.678;24.560;2023-04-27T07:40:30;98249.66;;;8.51;51.47
45327;BME280;31062;49.678;24.560;2023-04-27T07:43:17;98117.28;;;7.80;51.99
45327;BME280;31062;49.678;24.560;2023-04-27T07:46:03;98283.00;;;9.10;51.25
45327;BME280;31062;49.678;24.560;2023-04-27T07:48:48;98274.69;;;9.10;50.31
45327;BME280;31062;49.678;24.560;2023-04-27T07:51:35;98119.88;;;8.11;50.50
45327;BME280;31062;49.678;24.560;2023-04-27T07:54:20;98268.19;;;9.15;48.56
45327;BME280;31062;49.678;24.560;2023-04-27T07:57:09;98284.84;;;9.32;48.60
45327;BME280;31062;49.678;24.560;2023-04-27T07:59:56;98297.38;;;9.09;44.78
45327;BME280;31062;49.678;24.560;2023-04-27T08:02:41;98285.63;;;9.00;47.28
45327;BME280;31062;49.678;24.560;2023-04-27T08:05:27;98288.16;;;9.06;46.51
45327;BME280;31062;49.678;24.560;2023-04-27T08:08:14;98130.75;;;8.09;47.29
45327;BME280;31062;49.678;24.560;2023-04-27T08:11:00;98264.44;;;9.03;47.34
45327;BME280;31062;49.678;24.560;2023-04-27T08:13:45;98311.03;;;9.07;44.61
45327;BME280;31062;49.678;24.560;2023-04-27T08:16:30;98124.56;;;7.93;46.07
45327;BME280;31062;49.678;24.560;2023-04-27T08:19:16;98250.13;;;8.65;46.75
45327;BME280;31062;49.678;24.560;2023-04-27T08:22:02;98291.03;;;8.66;47.35
45327;BME280;31062;49.678;24.560;2023-04-27T08:24:48;98294.44;;;8.49;45.19
45327;BME280;31062;49.678;24.560;2023-04-27T08:27:38;98209.69;;;7.64;44.68
45327;BME280;31062;49.678;24.560;2023-04-27T08:30:24;98276.91;;;8.07;45.58
45327;BME280;31062;49.678;24.560;2023-04-27T08:33:10;98297.09;;;8.32;47.89
45327;BME280;31062;49.678;24.560;2023-04-27T08:35:56;98291.84;;;8.51;45.12
45327;BME280;31062;49.678;24.560;2023-04-27T08:38:41;98124.53;;;7.68;44.84
45327;BME280;31062;49.678;24.560;2023-04-27T08:41:27;98269.94;;;8.78;42.05
45327;BME280;31062;49.678;24.560;2023-04-27T08:44:12;98214.38;;;8.34;38.91
45327;BME280;31062;49.678;24.560;2023-04-27T08:46:59;98129.44;;;7.77;41.29
45327;BME280;31062;49.678;24.560;2023-04-27T08:49:45;98257.03;;;8.81;41.88
45327;BME280;31062;49.678;24.560;2023-04-27T08:52:31;98170.50;;;8.46;43.63
45327;BME280;31062;49.678;24.560;2023-04-27T08:55:16;98278.66;;;9.41;40.62
45327;BME280;31062;49.678;24.560;2023-04-27T08:58:02;98186.59;;;8.82;40.13
45327;BME280;31062;49.678;24.560;2023-04-27T09:00:48;98263.25;;;9.31;39.42
45327;BME280;31062;49.678;24.560;2023-04-27T09:03:37;98312.16;;;9.53;39.82
45327;BME280;31062;49.678;24.560;2023-04-27T09:06:33;98106.88;;;8.04;41.91
45327;BME280;31062;49.678;24.560;2023-04-27T09:09:23;98300.09;;;9.16;40.17
45327;BME280;31062;49.678;24.560;2023-04-27T09:12:18;98139.47;;;7.98;41.95
45327;BME280;31062;49.678;24.560;2023-04-27T09:15:05;98124.88;;;8.05;39.76
45327;BME280;31062;49.678;24.560;2023-04-27T09:17:54;98128.84;;;8.19;40.91
45327;BME280;31062;49.678;24.560;2023-04-27T09:20:44;98291.88;;;9.51;40.36
45327;BME280;31062;49.678;24.560;2023-04-27T09:23:32;98262.00;;;9.49;40.62
45327;BME280;31062;49.678;24.560;2023-04-27T09:26:27;98250.69;;;9.72;40.02
45327;BME280;31062;49.678;24.560;2023-04-27T09:29:13;98286.84;;;10.08;39.14
45327;BME280;31062;49.678;24.560;2023-04-27T09:31:59;98280.69;;;10.00;37.70
45327;BME280;31062;49.678;24.560;2023-04-27T09:34:45;98142.31;;;8.89;38.78
45327;BME280;31062;49.678;24.560;2023-04-27T09:37:31;98104.25;;;8.63;39.83
45327;BME280;31062;49.678;24.560;2023-04-27T09:40:18;98297.94;;;9.74;37.31
45327;BME280;31062;49.678;24.560;2023-04-27T09:43:04;98196.41;;;9.00;38.54
45327;BME280;31062;49.678;24.560;2023-04-27T09:45:50;98271.22;;;9.52;40.57
45327;BME280;31062;49.678;24.560;2023-04-27T09:48:37;98248.72;;;9.48;42.77
45327;BME280;31062;49.678;24.560;2023-04-27T09:51:23;98118.56;;;8.69;41.45
45327;BME280;31062;49.678;24.560;2023-04-27T09:54:09;98200.13;;;9.37;40.63
45327;BME280;31062;49.678;24.560;2023-04-27T09:57:13;98275.28;;;9.85;41.55
45327;BME280;31062;49.678;24.560;2023-04-27T10:09:36;98104.91;;;8.71;39.35
45327;BME280;31062;49.678;24.560;2023-04-27T10:12:32;98097.72;;;8.93;40.79
45327;BME280;31062;49.678;24.560;2023-04-27T10:15:25;98260.78;;;10.29;39.13
45327;BME280;31062;49.678;24.560;2023-04-27T10:18:11;98120.56;;;9.45;38.16
45327;BME280;31062;49.678;24.560;2023-04-27T10:21:08;98238.22;;;10.15;38.85
45327;BME280;31062;49.678;24.560;2023-04-27T10:23:54;98139.09;;;9.69;41.09
45327;BME280;31062;49.678;24.560;2023-04-27T10:26:45;98167.06;;;9.91;39.72
45327;BME280;31062;49.678;24.560;2023-04-27T10:29:39;98218.75;;;10.22;39.43
45327;BME280;31062;49.678;24.560;2023-04-27T10:32:27;98098.50;;;9.20;37.81
45327;BME280;31062;49.678;24.560;2023-04-27T10:35:13;98177.25;;;9.54;38.79
45327;BME280;31062;49.678;24.560;2023-04-27T10:38:06;98217.94;;;9.95;36.82
45327;BME280;31062;49.678;24.560;2023-04-27T10:40:59;98108.59;;;9.08;38.89
45327;BME280;31062;49.678;24.560;2023-04-27T10:43:46;98232.34;;;10.11;40.01
45327;BME280;31062;49.678;24.560;2023-04-27T10:46:34;98092.16;;;9.27;40.77
45327;BME280;31062;49.678;24.560;2023-04-27T10:49:21;98272.50;;;10.63;41.73
45327;BME280;31062;49.678;24.560;2023-04-27T10:52:07;98192.66;;;10.26;40.04
45327;BME280;31062;49.678;24.560;2023-04-27T10:54:52;98261.31;;;10.71;38.22
45327;BME280;31062;49.678;24.560;2023-04-27T10:57:45;98228.06;;;10.17;38.94
45327;BME280;31062;49.678;24.560;2023-04-27T11:00:34;98130.41;;;9.38;39.06
45327;BME280;31062;49.678;24.560;2023-04-27T11:03:22;98204.94;;;9.88;38.45
45327;BME280;31062;49.678;24.560;2023-04-27T11:06:08;98276.47;;;10.43;36.60
45327;BME280;31062;49.678;24.560;2023-04-27T11:08:54;98235.53;;;10.25;37.10
45327;BME280;31062;49.678;24.560;2023-04-27T11:11:44;98102.25;;;9.50;38.18
45327;BME280;31062;49.678;24.560;2023-04-27T11:14:34;98198.78;;;10.24;39.00
45327;BME280;31062;49.678;24.560;2023-04-27T11:17:28;98114.97;;;9.79;35.72
45327;BME280;31062;49.678;24.560;2023-04-27T11:20:23;98124.94;;;9.92;38.01
45327;BME280;31062;49.678;24.560;2023-04-27T11:23:08;98166.44;;;10.09;38.82
45327;BME280;31062;49.678;24.560;2023-04-27T11:25:56;98278.25;;;10.75;37.64
45327;BME280;31062;49.678;24.560;2023-04-27T11:28:43;98237.94;;;10.38;36.73
45327;BME280;31062;49.678;24.560;2023-04-27T11:32:00;98277.53;;;10.48;35.58
45327;BME280;31062;49.678;24.560;2023-04-27T11:34:53;98241.38;;;10.29;37.95
45327;BME280;31062;49.678;24.560;2023-04-27T11:37:55;98261.53;;;10.56;38.55
45327;BME280;31062;49.678;24.560;2023-04-27T11:40:45;98275.50;;;10.75;39.30
45327;BME280;31062;49.678;24.560;2023-04-27T11:43:32;98276.59;;;10.89;37.89
45327;BME280;31062;49.678;24.560;2023-04-27T11:46:19;98123.19;;;9.87;39.39
45327;BME280;31062;49.678;24.560;2023-04-27T11:49:08;98271.72;;;11.17;40.78
45327;BME280;31062;49.678;24.560;2023-04-27T11:51:57;98194.06;;;10.80;37.26
45327;BME280;31062;49.678;24.560;2023-04-27T11:54:51;98266.38;;;11.38;34.91
45327;BME280;31062;49.678;24.560;2023-04-27T11:57:37;98079.13;;;10.08;33.49
45327;BME280;31062;49.678;24.560;2023-04-27T12:00:23;98254.53;;;11.28;37.13
45327;BME280;31062;49.678;24.560;2023-04-27T12:03:09;98250.72;;;11.33;37.94
45327;BME280;31062;49.678;24.560;2023-04-27T12:05:55;98266.06;;;11.34;34.85
45327;BME280;31062;49.678;24.560;2023-04-27T12:08:42;98264.47;;;11.31;36.89
45327;BME280;31062;49.678;24.560;2023-04-27T12:11:27;98289.22;;;11.10;35.57
45327;BME280;31062;49.678;24.560;2023-04-27T12:14:13;98269.88;;;10.92;36.39
45327;BME280;31062;49.678;24.560;2023-04-27T12:16:59;98269.88;;;10.92;37.65
45327;BME280;31062;49.678;24.560;2023-04-27T12:19:45;98285.06;;;10.91;36.13
45327;BME280;31062;49.678;24.560;2023-04-27T12:22:30;98228.91;;;10.64;36.91
45327;BME280;31062;49.678;24.560;2023-04-27T12:25:17;98109.94;;;9.68;34.92
45327;BME280;31062;49.678;24.560;2023-04-27T12:28:04;98273.41;;;10.66;36.92
45327;BME280;31062;49.678;24.560;2023-04-27T12:30:50;98261.72;;;10.68;37.50
45327;BME280;31062;49.678;24.560;2023-04-27T12:33:37;98212.00;;;10.43;37.41
45327;BME280;31062;49.678;24.560;2023-04-27T12:36:22;98103.50;;;9.83;38.37
45327;BME280;31062;49.678;24.560;2023-04-27T12:39:26;98265.25;;;11.04;36.12
45327;BME280;31062;49.678;24.560;2023-04-27T12:42:11;98272.72;;;11.12;35.42
45327;BME280;31062;49.678;24.560;2023-04-27T12:44:57;98201.25;;;10.47;33.07
45327;BME280;31062;49.678;24.560;2023-04-27T12:47:42;98264.97;;;10.74;34.39
45327;BME280;31062;49.678;24.560;2023-04-27T12:50:47;98212.00;;;10.43;34.60
45327;BME280;31062;49.678;24.560;2023-04-27T12:53:32;98272.41;;;10.71;35.52
45327;BME280;31062;49.678;24.560;2023-04-27T12:56:18;98206.03;;;10.19;33.69
45327;BME280;31062;49.678;24.560;2023-04-27T12:59:04;98240.97;;;10.32;35.94
45327;BME280;31062;49.678;24.560;2023-04-27T13:01:50;98230.88;;;10.27;34.95
45327;BME280;31062;49.678;24.560;2023-04-27T13:04:36;98241.69;;;10.33;34.90
45327;BME280;31062;49.678;24.560;2023-04-27T13:07:22;98265.59;;;10.28;35.15
45327;BME280;31062;49.678;24.560;2023-04-27T13:10:08;98242.03;;;10.19;35.36
45327;BME280;31062;49.678;24.560;2023-04-27T13:12:53;98233.22;;;10.13;36.54
45327;BME280;31062;49.678;24.560;2023-04-27T13:15:39;98234.63;;;10.22;36.09
45327;BME280;31062;49.678;24.560;2023-04-27T13:18:24;98142.69;;;9.62;35.83
45327;BME280;31062;49.678;24.560;2023-04-27T13:21:10;98241.78;;;10.42;32.92
45327;BME280;31062;49.678;24.560;2023-04-27T13:23:55;98112.19;;;9.53;33.24
45327;BME280;31062;49.678;24.560;2023-04-27T13:26:44;98274.19;;;10.76;33.25
45327;BME280;31062;49.678;24.560;2023-04-27T13:29:30;98286.41;;;10.73;34.16
45327;BME280;31062;49.678;24.560;2023-04-27T13:32:18;98158.59;;;9.89;34.26
45327;BME280;31062;49.678;24.560;2023-04-27T13:35:04;98279.84;;;10.69;34.54
45327;BME280;31062;49.678;24.560;2023-04-27T13:37:50;98196.28;;;10.18;35.46
45327;BME280;31062;49.678;24.560;2023-04-27T13:40:38;98152.66;;;9.92;36.50
45327;BME280;31062;49.678;24.560;2023-04-27T13:43:24;98287.25;;;10.93;34.44
45327;BME280;31062;49.678;24.560;2023-04-27T13:46:11;98141.22;;;10.05;34.59
45327;BME280;31062;49.678;24.560;2023-04-27T13:48:58;98222.19;;;10.67;35.38
45327;BME280;31062;49.678;24.560;2023-04-27T13:51:43;98291.59;;;11.23;37.25
45327;BME280;31062;49.678;24.560;2023-04-27T13:54:28;98268.19;;;11.07;37.28
45327;BME280;31062;49.678;24.560;2023-04-27T13:57:14;98288.31;;;11.43;36.61
45327;BME280;31062;49.678;24.560;2023-04-27T14:00:00;98268.00;;;11.41;34.69
45327;BME280;31062;49.678;24.560;2023-04-27T14:02:51;98272.38;;;11.44;35.35
45327;BME280;31062;49.678;24.560;2023-04-27T14:05:37;98292.00;;;11.65;36.90
45327;BME280;31062;49.678;24.560;2023-04-27T14:08:22;98265.38;;;11.43;37.13
45327;BME280;31062;49.678;24.560;2023-04-27T14:11:11;98238.47;;;11.36;36.48
45327;BME280;31062;49.678;24.560;2023-04-27T14:13:57;98290.81;;;11.49;34.12
45327;BME280;31062;49.678;24.560;2023-04-27T14:16:43;98129.66;;;10.26;35.63
45327;BME280;31062;49.678;24.560;2023-04-27T14:19:29;98295.13;;;11.33;35.52
45327;BME280;31062;49.678;24.560;2023-04-27T14:22:16;98266.88;;;11.08;36.38
45327;BME280;31062;49.678;24.560;2023-04-27T14:25:01;98191.66;;;10.57;36.09
45327;BME280;31062;49.678;24.560;2023-04-27T14:27:47;98233.06;;;10.82;35.86
45327;BME280;31062;49.678;24.560;2023-04-27T14:30:33;98136.78;;;10.19;36.76
45327;BME280;31062;49.678;24.560;2023-04-27T14:33:19;98320.72;;;11.31;35.99
45327;BME280;31062;49.678;24.560;2023-04-27T14:36:05;98315.09;;;11.22;37.04
45327;BME280;31062;49.678;24.560;2023-04-27T14:38:51;98315.50;;;11.09;36.60
45327;BME280;31062;49.678;24.560;2023-04-27T14:41:36;98324.81;;;11.03;37.44
45327;BME280;31062;49.678;24.560;2023-04-27T14:44:22;98313.94;;;10.88;36.73
45327;BME280;31062;49.678;24.560;2023-04-27T14:47:08;98163.59;;;9.73;35.75
45327;BME280;31062;49.678;24.560;2023-04-27T14:49:54;98331.41;;;10.81;38.06